< < Back
Terminal Aerodrome Forecast


Current Version              Previous Versions:   1  2  3  4  5  6  7  8  9  

Terminal Aerodrome Forecast

895
FTUS44 KMOB 231100
TAFMOB
TAF
KMOB 231127Z 2312/2412 29003KT P6SM FEW090 FEW150
     FM231400 34005KT P6SM FEW030
     FM232100 25005KT P6SM VCTS SCT030CB
     FM240100 29003KT P6SM SKC=

Latest METAR

496
SAUS80 KWBC 231500
MTRMOB
METAR KMOB 231456Z 01007KT 10SM FEW250 32/23 A3004 RMK AO2 SLP169
T03220228 50003


USA.gov is the U.S. government's official web portal to all federal, state and local government web resources and services.